PROFILE

 METAR AND TAF INFORMATION
ADDS - METARS form results

(0048 UTC 13 November 2018)
http://aviationweather.gov/metar/data/
 
TFFF 130030Z AUTO 06002KT 9999 FEW018 BKN240 27/24 Q1012 NOSIG
TFFF 130000Z AUTO VRB03KT CAVOK 27/24 Q1012 NOSIG
TAF TFFF 122300Z 1300/1324 09006KT 9999 SCT020 SCT040 TEMPO 1306/1324 3000 SHRA FEW013CB BKN018TCU PROB30 TEMPO 1315/1322 VRB15G25KT 1000 TSRA BKN010CB 

 AIRPORT MAP

 RUNWAY INFORMATION
Runway 10 Runway length 10826 ft Runway width 147 ft
Runway elevation 10 ft Runway displaced threshold 0 ft Runway heading 80
Runway 28 Runway length 10826 ft Runway width 147 ft
Runway elevation 14 ft Runway displaced threshold 984 ft Runway heading 260

 AIRPORT FREQUENCIES
Type APP Name FORT DE FR Frequency 121 MHZ
Type ATIS Name ATIS Frequency 127.85 MHZ
Type GND Name GND Frequency 121.9 MHZ
Type TWR Name FORT DE FR Frequency 118.5 MHZ

 AIRPORT NEAR NAVIGATION AIDS
Type VOR-DME Name Fort De France Frequency 113300 KHZ
Type NDB Name Fort De France Frequency 329 KHZ